createdAt,value
2018-07-17T00:01:23.169Z,6.60
2018-07-17T00:03:52.096Z,6.83
2018-07-17T00:06:20.774Z,6.83
2018-07-17T00:08:49.361Z,6.40
2018-07-17T00:11:17.312Z,6.70
2018-07-17T00:13:45.496Z,6.90
2018-07-17T00:16:13.634Z,6.60
2018-07-17T00:18:41.826Z,7.20
2018-07-17T00:21:10.532Z,7.13
2018-07-17T00:23:38.684Z,6.97
2018-07-17T00:26:06.848Z,7.00
2018-07-17T00:28:35.033Z,6.47
2018-07-17T00:31:03.188Z,6.80
2018-07-17T00:33:31.367Z,7.40
2018-07-17T00:35:59.543Z,7.00
2018-07-17T00:38:27.712Z,7.27
2018-07-17T00:40:55.901Z,6.30
2018-07-17T00:43:24.076Z,7.03
2018-07-17T00:45:52.254Z,6.97
2018-07-17T00:48:20.427Z,6.63
2018-07-17T00:50:48.596Z,6.73
2018-07-17T00:53:16.773Z,6.60
2018-07-17T00:55:44.958Z,5.93
2018-07-17T00:58:13.133Z,6.10
2018-07-17T01:00:45.562Z,5.80
2018-07-17T01:03:19.713Z,5.60
2018-07-17T01:05:53.762Z,6.27
2018-07-17T01:08:27.469Z,6.50
2018-07-17T01:11:00.913Z,6.07
2018-07-17T01:13:48.557Z,5.80
2018-07-17T01:16:17.769Z,6.13
2018-07-17T01:18:46.973Z,6.60
2018-07-17T01:21:15.121Z,6.27
2018-07-17T01:23:43.322Z,5.20
2018-07-17T01:26:11.496Z,5.13
2018-07-17T01:28:39.648Z,5.33
2018-07-17T01:31:07.813Z,6.97
2018-07-17T01:33:36.004Z,6.43
2018-07-17T01:36:04.166Z,5.67
2018-07-17T01:38:32.446Z,6.47
2018-07-17T01:41:01.406Z,5.80
2018-07-17T01:43:29.620Z,6.60
2018-07-17T01:45:57.777Z,6.37
2018-07-17T01:48:25.960Z,6.37
2018-07-17T01:50:56.205Z,6.60
2018-07-17T01:53:24.384Z,5.47
2018-07-17T01:55:52.533Z,6.10
2018-07-17T01:58:22.785Z,6.30
2018-07-17T02:00:50.970Z,5.53
2018-07-17T02:03:20.137Z,5.93
2018-07-17T02:05:48.377Z,5.57
2018-07-17T02:08:16.593Z,6.20
2018-07-17T02:10:44.731Z,5.87
2018-07-17T02:13:12.961Z,5.90
2018-07-17T02:15:41.171Z,5.53
2018-07-17T02:18:10.297Z,6.73
2018-07-17T02:20:39.490Z,6.00
2018-07-17T02:23:07.646Z,5.60
2018-07-17T02:25:36.990Z,5.90
2018-07-17T02:28:05.128Z,6.27
2018-07-17T02:30:33.327Z,6.53
2018-07-17T02:33:01.572Z,5.93
2018-07-17T02:35:29.770Z,5.10
2018-07-17T02:37:57.912Z,5.23
2018-07-17T02:40:26.114Z,6.00
2018-07-17T02:42:54.326Z,5.90
2018-07-17T02:45:22.454Z,5.50
2018-07-17T02:47:50.617Z,5.83
2018-07-17T02:50:18.803Z,4.60
2018-07-17T02:52:46.969Z,5.67
2018-07-17T02:55:15.144Z,5.80
2018-07-17T02:57:43.317Z,5.23
2018-07-17T03:00:11.506Z,5.97
2018-07-17T03:02:39.657Z,5.13
2018-07-17T03:05:07.840Z,6.00
2018-07-17T03:07:37.028Z,6.17
2018-07-17T03:10:05.223Z,6.63
2018-07-17T03:12:34.412Z,6.53
2018-07-17T03:15:02.612Z,6.20
2018-07-17T03:17:30.749Z,5.80
2018-07-17T03:19:58.936Z,5.83
2018-07-17T03:22:27.103Z,5.87
2018-07-17T03:24:58.494Z,6.23
2018-07-17T03:27:27.653Z,6.20
2018-07-17T03:29:55.828Z,6.17
2018-07-17T03:32:24.005Z,7.00
2018-07-17T03:34:52.226Z,5.20
2018-07-17T03:37:20.370Z,6.30
2018-07-17T03:39:48.533Z,6.43
2018-07-17T03:42:16.684Z,5.60
2018-07-17T03:44:45.108Z,5.90
2018-07-17T03:47:13.247Z,6.47
2018-07-17T03:49:41.440Z,5.80
2018-07-17T03:52:09.594Z,6.90
2018-07-17T03:54:37.772Z,5.60
2018-07-17T03:57:05.948Z,5.60
2018-07-17T03:59:34.137Z,5.77
2018-07-17T04:02:02.311Z,5.20
2018-07-17T04:04:30.494Z,5.80
2018-07-17T04:06:58.642Z,5.27
2018-07-17T04:09:26.830Z,5.80
2018-07-17T04:11:54.997Z,5.40
2018-07-17T04:14:24.179Z,5.50
2018-07-17T04:16:55.468Z,5.73
2018-07-17T04:19:24.660Z,6.40
2018-07-17T04:21:52.856Z,5.70
2018-07-17T04:24:22.238Z,5.83
2018-07-17T04:26:50.381Z,5.87
2018-07-17T04:29:18.553Z,5.77
2018-07-17T04:31:46.760Z,5.90
2018-07-17T04:34:14.986Z,6.43
2018-07-17T04:36:43.238Z,5.53
2018-07-17T04:39:12.808Z,5.60
2018-07-17T04:41:41.129Z,5.63
2018-07-17T04:44:10.136Z,5.73
2018-07-17T04:46:38.250Z,5.97
2018-07-17T04:49:06.647Z,6.13
2018-07-17T04:51:34.768Z,5.53
2018-07-17T04:54:02.878Z,5.93
2018-07-17T04:56:31.000Z,5.70
2018-07-17T04:58:59.096Z,6.13
2018-07-17T05:01:27.422Z,5.83
2018-07-17T05:03:55.499Z,5.33
2018-07-17T05:06:23.596Z,5.53
2018-07-17T05:08:51.716Z,5.97
2018-07-17T05:11:19.838Z,6.20
2018-07-17T05:13:47.940Z,5.10
2018-07-17T05:16:16.099Z,6.20
2018-07-17T05:18:44.231Z,6.40
2018-07-17T05:21:12.372Z,5.70
2018-07-17T05:23:40.508Z,5.40
2018-07-17T05:26:08.645Z,5.30
2018-07-17T05:28:36.761Z,6.20
2018-07-17T05:31:05.017Z,6.00
2018-07-17T05:33:33.136Z,5.60
2018-07-17T05:36:01.283Z,6.20
2018-07-17T05:38:29.405Z,6.03
2018-07-17T05:40:57.536Z,6.80
2018-07-17T05:43:25.640Z,6.47
2018-07-17T05:45:53.771Z,7.13
2018-07-17T05:48:21.929Z,6.33
2018-07-17T05:50:50.048Z,6.23
2018-07-17T05:53:18.173Z,5.80
2018-07-17T05:55:46.316Z,6.20
2018-07-17T05:58:14.429Z,5.47
2018-07-17T06:00:42.588Z,5.90
2018-07-17T06:03:10.743Z,5.13
2018-07-17T06:05:38.882Z,5.30
2018-07-17T06:08:07.014Z,5.63
2018-07-17T06:10:35.140Z,6.07
2018-07-17T06:13:03.257Z,5.60
2018-07-17T06:15:31.392Z,4.43
2018-07-17T06:17:59.508Z,4.30
2018-07-17T06:20:27.629Z,4.00
2018-07-17T06:22:56.724Z,4.10
2018-07-17T06:25:24.826Z,4.33
2018-07-17T06:27:52.928Z,4.30
2018-07-17T06:30:21.053Z,4.10
2018-07-17T06:32:49.190Z,4.10
2018-07-17T06:35:17.340Z,4.60
2018-07-17T06:37:45.448Z,4.57
2018-07-17T06:40:13.560Z,3.83
2018-07-17T06:42:41.686Z,4.90
2018-07-17T06:45:09.818Z,4.90
2018-07-17T06:47:37.935Z,4.40
2018-07-17T06:50:06.193Z,4.70
2018-07-17T06:52:34.296Z,5.00
2018-07-17T06:55:02.415Z,4.20
2018-07-17T06:57:30.588Z,4.93
2018-07-17T06:59:58.666Z,4.87
2018-07-17T07:02:26.814Z,5.20
2018-07-17T07:04:54.937Z,5.07
2018-07-17T07:07:23.074Z,4.47
2018-07-17T07:09:51.232Z,4.63
2018-07-17T07:12:19.344Z,4.50
2018-07-17T07:14:47.475Z,4.80
2018-07-17T07:17:15.593Z,4.63
2018-07-17T07:19:43.934Z,4.93
2018-07-17T07:22:12.147Z,5.17
2018-07-17T07:24:40.293Z,4.43
2018-07-17T07:27:08.259Z,4.70
2018-07-17T07:29:36.384Z,4.50
2018-07-17T07:32:04.608Z,4.00
2018-07-17T07:34:32.755Z,4.87
2018-07-17T07:37:00.903Z,5.23
2018-07-17T07:39:29.042Z,5.20
2018-07-17T07:41:57.208Z,4.70
2018-07-17T07:44:25.350Z,5.43
2018-07-17T07:46:53.510Z,4.90
2018-07-17T07:49:21.648Z,4.97
2018-07-17T07:51:49.790Z,4.80
2018-07-17T07:54:17.909Z,5.50
2018-07-17T07:56:46.041Z,5.50
2018-07-17T07:59:14.160Z,5.27
2018-07-17T08:01:42.330Z,4.87
2018-07-17T08:04:10.529Z,5.67
2018-07-17T08:06:38.657Z,5.30
2018-07-17T08:09:07.497Z,5.60
2018-07-17T08:11:35.704Z,5.17
2018-07-17T08:14:03.802Z,6.03
2018-07-17T08:16:32.028Z,5.17
2018-07-17T08:19:00.177Z,5.20
2018-07-17T08:21:28.300Z,5.70
2018-07-17T08:23:56.478Z,5.37
2018-07-17T08:26:24.604Z,5.00
2018-07-17T08:28:52.833Z,4.90
2018-07-17T08:31:20.980Z,5.87
2018-07-17T08:33:48.979Z,4.80
2018-07-17T08:36:17.169Z,4.80
2018-07-17T08:38:45.345Z,4.90
2018-07-17T08:41:13.493Z,4.40
2018-07-17T08:43:41.650Z,4.30
2018-07-17T08:46:09.795Z,4.07
2018-07-17T08:48:37.953Z,4.23
2018-07-17T08:51:06.237Z,3.90
2018-07-17T08:53:34.368Z,4.80
2018-07-17T08:56:02.515Z,4.10
2018-07-17T08:58:30.673Z,4.67
2018-07-17T09:00:58.835Z,4.20
2018-07-17T09:03:26.984Z,3.70
2018-07-17T09:05:55.193Z,3.87
2018-07-17T09:08:23.272Z,4.40
2018-07-17T09:10:51.414Z,3.80
2018-07-17T09:13:19.553Z,3.83
2018-07-17T09:15:47.710Z,4.20
2018-07-17T09:18:15.641Z,3.70
2018-07-17T09:20:43.781Z,3.90
2018-07-17T09:23:11.939Z,3.90
2018-07-17T09:25:40.062Z,3.67
2018-07-17T09:28:08.231Z,4.00
2018-07-17T09:30:41.853Z,3.50
2018-07-17T09:33:10.009Z,3.80
2018-07-17T09:35:38.161Z,3.40
2018-07-17T09:38:06.810Z,4.23
2018-07-17T09:40:34.969Z,3.60
2018-07-17T09:43:03.100Z,3.93
2018-07-17T09:45:31.632Z,3.43
2018-07-17T09:47:59.888Z,3.20
2018-07-17T09:50:28.036Z,3.30
2018-07-17T09:52:56.294Z,3.93
2018-07-17T09:55:24.441Z,2.90
2018-07-17T09:57:52.669Z,2.97
2018-07-17T10:00:26.234Z,3.50
2018-07-17T10:02:54.376Z,2.97
2018-07-17T10:05:22.505Z,3.20
2018-07-17T10:07:50.630Z,3.10
2018-07-17T10:10:18.770Z,3.20
2018-07-17T10:12:47.078Z,3.70
2018-07-17T10:15:15.196Z,3.50
2018-07-17T10:17:43.502Z,3.17
2018-07-17T10:20:11.686Z,3.60
2018-07-17T10:22:40.064Z,3.23
2018-07-17T10:25:08.768Z,3.67
2018-07-17T10:27:36.946Z,3.30
2018-07-17T10:30:04.890Z,3.40
2018-07-17T10:32:33.010Z,3.17
2018-07-17T10:35:01.118Z,3.57
2018-07-17T10:37:29.237Z,2.90
2018-07-17T10:39:57.189Z,3.67
2018-07-17T10:42:25.293Z,3.57
2018-07-17T10:44:54.429Z,2.90
2018-07-17T10:47:22.657Z,3.63
2018-07-17T10:49:50.565Z,3.27
2018-07-17T10:52:18.972Z,2.83
2018-07-17T10:54:47.471Z,3.27
2018-07-17T10:57:15.930Z,3.37
2018-07-17T10:59:44.392Z,3.07
2018-07-17T11:02:12.604Z,3.27
2018-07-17T11:04:40.720Z,3.43
2018-07-17T11:07:08.833Z,3.17
2018-07-17T11:09:36.982Z,3.77
2018-07-17T11:12:05.084Z,2.70
2018-07-17T11:14:33.202Z,3.63
2018-07-17T11:17:01.341Z,3.40
2018-07-17T11:19:29.488Z,3.77
2018-07-17T11:21:57.627Z,4.00
2018-07-17T11:24:26.185Z,3.70
2018-07-17T11:26:54.340Z,3.67
2018-07-17T11:29:22.493Z,2.97
2018-07-17T11:31:50.639Z,3.17
2018-07-17T11:34:18.765Z,3.00
2018-07-17T11:36:46.657Z,2.93
2018-07-17T11:39:14.803Z,3.13
2018-07-17T11:41:42.713Z,2.87
2018-07-17T11:44:10.869Z,2.67
2018-07-17T11:46:39.013Z,3.43
2018-07-17T11:49:07.141Z,3.53
2018-07-17T11:51:35.268Z,3.13
2018-07-17T11:54:03.412Z,3.27
2018-07-17T11:56:31.571Z,2.93
2018-07-17T11:58:59.824Z,3.17
2018-07-17T12:01:27.885Z,3.50
2018-07-17T12:03:56.013Z,2.80
2018-07-17T12:06:24.165Z,3.13
2018-07-17T12:08:52.297Z,2.93
2018-07-17T12:11:20.581Z,2.80
2018-07-17T12:13:48.784Z,2.73
2018-07-17T12:16:16.978Z,2.67
2018-07-17T12:18:45.099Z,3.17
2018-07-17T12:21:13.241Z,3.50
2018-07-17T12:23:41.389Z,2.70
2018-07-17T12:26:09.524Z,2.80
2018-07-17T12:28:37.657Z,2.63
2018-07-17T12:31:05.889Z,2.80
2018-07-17T12:33:34.048Z,3.00
2018-07-17T12:36:02.197Z,3.40
2018-07-17T12:38:30.126Z,2.87
2018-07-17T12:40:58.276Z,3.20
2018-07-17T12:43:26.487Z,2.70
2018-07-17T12:45:54.609Z,3.37
2018-07-17T12:48:22.720Z,3.07
2018-07-17T12:50:50.845Z,2.90
2018-07-17T12:53:18.974Z,2.40
2018-07-17T12:55:47.097Z,2.73
2018-07-17T12:58:15.230Z,3.47
2018-07-17T13:00:43.364Z,3.67
2018-07-17T13:03:11.478Z,3.70
2018-07-17T13:05:39.615Z,3.67
2018-07-17T13:08:07.741Z,3.80
2018-07-17T13:10:35.653Z,3.73
2018-07-17T13:13:03.768Z,4.40
2018-07-17T13:15:31.969Z,3.73
2018-07-17T13:18:00.064Z,3.67
2018-07-17T13:20:28.214Z,3.70
2018-07-17T13:22:56.376Z,4.17
2018-07-17T13:25:24.525Z,3.80
2018-07-17T13:27:52.757Z,3.83
2018-07-17T13:30:20.914Z,3.97
2018-07-17T13:32:49.064Z,3.60
2018-07-17T13:35:17.214Z,3.33
2018-07-17T13:37:45.372Z,4.23
2018-07-17T13:40:13.544Z,3.37
2018-07-17T13:42:41.653Z,3.90
2018-07-17T13:45:09.806Z,3.63
2018-07-17T13:47:37.945Z,3.80
2018-07-17T13:50:06.168Z,4.07
2018-07-17T13:52:34.279Z,3.67
2018-07-17T13:55:02.425Z,3.60
2018-07-17T13:57:30.574Z,4.00
2018-07-17T13:59:58.776Z,4.33
2018-07-17T14:02:27.075Z,4.20
2018-07-17T14:04:55.121Z,4.07
2018-07-17T14:07:23.272Z,4.20
2018-07-17T14:09:51.436Z,4.40
2018-07-17T14:12:19.646Z,3.93
2018-07-17T14:14:47.788Z,4.13
2018-07-17T14:17:15.988Z,3.43
2018-07-17T14:19:44.089Z,3.90
2018-07-17T14:22:12.213Z,3.90
2018-07-17T14:24:40.377Z,3.70
2018-07-17T14:27:08.509Z,3.50
2018-07-17T14:29:36.640Z,3.30
2018-07-17T14:32:04.833Z,3.70
2018-07-17T14:34:33.825Z,3.67
2018-07-17T14:37:01.976Z,3.50
2018-07-17T14:39:30.078Z,4.10
2018-07-17T14:41:58.222Z,3.70
2018-07-17T14:44:26.317Z,3.77
2018-07-17T14:46:54.452Z,4.37
2018-07-17T14:49:22.583Z,3.80
2018-07-17T14:51:50.709Z,4.20
2018-07-17T14:54:18.833Z,3.80
2018-07-17T14:56:46.941Z,4.10
2018-07-17T14:59:15.053Z,4.50
2018-07-17T15:01:43.166Z,4.20
2018-07-17T15:04:11.306Z,3.87
2018-07-17T15:06:39.460Z,3.80
2018-07-17T15:09:08.473Z,4.00
2018-07-17T15:11:36.629Z,4.00
2018-07-17T15:14:04.782Z,3.33
2018-07-17T15:16:32.912Z,3.70
2018-07-17T15:19:01.061Z,3.80
2018-07-17T15:21:29.193Z,3.70
2018-07-17T15:23:57.305Z,3.87
2018-07-17T15:26:25.498Z,3.63
2018-07-17T15:28:53.566Z,4.30
2018-07-17T15:31:21.495Z,3.93
2018-07-17T15:33:49.615Z,4.17
2018-07-17T15:36:17.729Z,4.30
2018-07-17T15:38:45.866Z,4.20
2018-07-17T15:41:14.043Z,4.37
2018-07-17T15:43:42.170Z,4.20
2018-07-17T15:46:10.292Z,4.80
2018-07-17T15:48:38.425Z,4.60
2018-07-17T15:51:06.568Z,4.07
2018-07-17T15:53:34.705Z,3.70
2018-07-17T15:56:02.822Z,4.17
2018-07-17T15:58:30.956Z,4.50
2018-07-17T16:00:59.069Z,4.60
2018-07-17T16:03:27.201Z,4.23
2018-07-17T16:05:55.317Z,4.60
2018-07-17T16:08:23.445Z,4.50
2018-07-17T16:10:51.561Z,4.20
2018-07-17T16:13:19.750Z,4.07
2018-07-17T16:15:47.829Z,4.87
2018-07-17T16:18:16.064Z,4.27
2018-07-17T16:20:46.169Z,4.27
2018-07-17T16:23:14.333Z,4.70
2018-07-17T16:25:42.445Z,4.00
2018-07-17T16:28:10.579Z,4.30
2018-07-17T16:30:38.477Z,4.40
2018-07-17T16:33:06.617Z,4.10
2018-07-17T16:35:34.513Z,5.00
2018-07-17T16:38:02.632Z,4.23
2018-07-17T16:40:30.753Z,4.17
2018-07-17T16:42:58.899Z,4.63
2018-07-17T16:45:26.808Z,4.40
2018-07-17T16:47:55.099Z,4.20
2018-07-17T16:50:23.151Z,4.67
2018-07-17T16:52:51.278Z,5.07
2018-07-17T16:55:19.406Z,4.50
2018-07-17T16:57:47.539Z,4.00
2018-07-17T17:00:15.468Z,4.70
2018-07-17T17:02:43.604Z,3.80
2018-07-17T17:05:11.745Z,3.90
2018-07-17T17:07:39.880Z,4.37
2018-07-17T17:10:08.001Z,4.10
2018-07-17T17:12:36.115Z,4.00
2018-07-17T17:15:04.888Z,4.23
2018-07-17T17:17:33.124Z,3.67
2018-07-17T17:20:01.232Z,4.00
2018-07-17T17:22:29.360Z,4.50
2018-07-17T17:24:57.489Z,3.60
2018-07-17T17:27:25.625Z,3.83
2018-07-17T17:29:53.519Z,4.07
2018-07-17T17:32:21.675Z,4.60
2018-07-17T17:34:49.794Z,4.13
2018-07-17T17:37:17.965Z,3.97
2018-07-17T17:39:46.129Z,4.37
2018-07-17T17:42:14.270Z,4.20
2018-07-17T17:44:42.405Z,3.97
2018-07-17T17:47:10.557Z,4.63
2018-07-17T17:49:38.749Z,4.13
2018-07-17T17:52:06.882Z,4.00
2018-07-17T17:54:34.992Z,4.13
2018-07-17T17:57:03.121Z,4.10
2018-07-17T17:59:31.245Z,4.13
2018-07-17T18:02:02.881Z,4.43
2018-07-17T18:04:33.020Z,4.13
2018-07-17T18:07:04.593Z,4.40
2018-07-17T18:09:36.367Z,4.17
2018-07-17T18:12:06.671Z,4.20
2018-07-17T18:14:35.733Z,4.20
2018-07-17T18:17:03.928Z,4.10
2018-07-17T18:19:38.047Z,3.90
2018-07-17T18:25:09.162Z,4.77
2018-07-17T18:27:54.534Z,3.77
2018-07-17T18:30:39.415Z,4.13
2018-07-17T18:33:07.561Z,3.90
2018-07-17T18:35:35.682Z,4.40
2018-07-17T18:38:03.865Z,4.27
2018-07-17T18:40:31.996Z,3.87
2018-07-17T18:43:00.124Z,4.13
2018-07-17T18:45:28.256Z,3.90
2018-07-17T18:47:56.430Z,4.23
2018-07-17T18:50:24.536Z,4.20
2018-07-17T18:52:52.905Z,4.37
2018-07-17T18:55:21.043Z,4.57
2018-07-17T18:57:49.177Z,4.17
2018-07-17T19:00:17.352Z,4.70
2018-07-17T19:02:45.469Z,4.60
2018-07-17T19:05:13.586Z,4.30
2018-07-17T19:07:41.732Z,4.37
2018-07-17T19:10:09.861Z,3.77
2018-07-17T19:12:37.998Z,4.67
2018-07-17T19:15:06.385Z,3.90
2018-07-17T19:17:34.501Z,3.93
2018-07-17T19:20:02.647Z,4.73
2018-07-17T19:22:30.765Z,4.90
2018-07-17T19:24:58.904Z,5.10
2018-07-17T19:27:27.012Z,4.80
2018-07-17T19:29:55.178Z,4.60
2018-07-17T19:32:23.327Z,4.93
2018-07-17T19:34:51.401Z,5.03
2018-07-17T19:37:19.579Z,4.90
2018-07-17T19:39:48.722Z,4.50
2018-07-17T19:42:16.867Z,4.50
2018-07-17T19:44:45.116Z,4.83
2018-07-17T19:47:29.650Z,4.80
2018-07-17T19:50:01.402Z,5.10
2018-07-17T19:52:29.525Z,5.10
2018-07-17T19:54:57.647Z,4.97
2018-07-17T19:57:25.789Z,4.70
2018-07-17T19:59:53.929Z,5.30
2018-07-17T20:02:22.057Z,5.17
2018-07-17T20:04:50.193Z,5.23
2018-07-17T20:07:18.304Z,5.00
2018-07-17T20:09:46.429Z,5.13
2018-07-17T20:12:14.537Z,4.47
2018-07-17T20:14:42.677Z,5.00
2018-07-17T20:17:10.793Z,5.43
2018-07-17T20:19:38.934Z,5.33
2018-07-17T20:22:07.044Z,6.10
2018-07-17T20:24:35.217Z,5.43
2018-07-17T20:27:03.308Z,6.10
2018-07-17T20:29:31.414Z,5.50
2018-07-17T20:31:59.524Z,5.60
2018-07-17T20:34:27.652Z,5.57
2018-07-17T20:36:55.855Z,5.20
2018-07-17T20:39:23.968Z,5.47
2018-07-17T20:41:52.132Z,5.80
2018-07-17T20:44:20.225Z,5.27
2018-07-17T20:46:48.334Z,5.43
2018-07-17T20:49:16.437Z,5.53
2018-07-17T20:51:44.543Z,5.30
2018-07-17T20:54:12.661Z,5.40
2018-07-17T20:56:40.829Z,5.53
2018-07-17T20:59:08.932Z,5.90
2018-07-17T21:01:37.068Z,5.83
2018-07-17T21:04:05.189Z,5.20
2018-07-17T21:06:33.312Z,5.70
2018-07-17T21:09:01.436Z,5.40
2018-07-17T21:11:29.573Z,5.90
2018-07-17T21:13:57.686Z,5.20
2018-07-17T21:16:25.840Z,5.73
2018-07-17T21:18:53.995Z,5.70
2018-07-17T21:21:22.146Z,5.63
2018-07-17T21:23:50.281Z,5.70
2018-07-17T21:26:18.400Z,4.90
2018-07-17T21:28:46.521Z,5.10
2018-07-17T21:31:14.645Z,5.73
2018-07-17T21:33:42.781Z,5.57
2018-07-17T21:36:10.893Z,5.60
2018-07-17T21:38:39.003Z,6.37
2018-07-17T21:41:07.140Z,5.90
2018-07-17T21:43:35.285Z,6.53
2018-07-17T21:46:03.400Z,6.43
2018-07-17T21:48:31.537Z,5.80
2018-07-17T21:50:59.675Z,5.90
2018-07-17T21:53:27.808Z,6.43
2018-07-17T21:55:55.949Z,6.00
2018-07-17T21:58:24.105Z,6.20
2018-07-17T22:00:52.895Z,6.23
2018-07-17T22:03:21.381Z,6.70
2018-07-17T22:05:49.505Z,6.00
2018-07-17T22:08:17.630Z,5.80
2018-07-17T22:10:45.737Z,5.97
2018-07-17T22:13:13.847Z,6.33
2018-07-17T22:15:41.969Z,6.03
2018-07-17T22:18:11.151Z,5.00
2018-07-17T22:20:39.314Z,6.10
2018-07-17T22:23:07.421Z,5.70
2018-07-17T22:25:35.526Z,5.80
2018-07-17T22:28:03.648Z,4.97
2018-07-17T22:30:31.745Z,5.77
2018-07-17T22:32:59.848Z,5.67
2018-07-17T22:35:28.077Z,6.33
2018-07-17T22:37:56.180Z,5.67
2018-07-17T22:40:24.293Z,5.43
2018-07-17T22:42:52.416Z,5.93
2018-07-17T22:45:20.525Z,5.73
2018-07-17T22:47:48.614Z,4.90
2018-07-17T22:50:16.729Z,5.30
2018-07-17T22:52:44.890Z,5.53
2018-07-17T22:55:13.105Z,4.93
2018-07-17T22:57:41.213Z,5.73
2018-07-17T23:00:09.341Z,5.90
2018-07-17T23:02:37.441Z,5.57
2018-07-17T23:05:05.679Z,5.70
2018-07-17T23:07:33.769Z,6.40
2018-07-17T23:10:01.881Z,6.00
2018-07-17T23:12:29.993Z,6.03
2018-07-17T23:14:58.103Z,5.47
2018-07-17T23:17:26.224Z,5.50
2018-07-17T23:19:54.352Z,6.00
2018-07-17T23:22:31.793Z,5.53
2018-07-17T23:24:59.952Z,5.50
2018-07-17T23:27:28.040Z,5.57
2018-07-17T23:29:56.143Z,5.73
2018-07-17T23:32:24.257Z,5.53
2018-07-17T23:34:52.360Z,5.90
2018-07-17T23:37:20.469Z,5.33
2018-07-17T23:39:48.583Z,5.13
2018-07-17T23:42:16.690Z,5.33
2018-07-17T23:44:44.804Z,5.03
2018-07-17T23:47:12.900Z,5.20
2018-07-17T23:49:43.522Z,5.03
2018-07-17T23:52:11.621Z,5.67
2018-07-17T23:54:39.753Z,5.70
2018-07-17T23:57:07.858Z,5.70
2018-07-17T23:59:35.973Z,5.43
